Terminal Aerodrome Forecast
Issued by NWS Billings, MT

Home | Current Version | Previous Version | Text Only | Print | Product List | Glossary On
Versions: 1 2 3 4 5 6 7 8 9 10 11 12 13 14 15 16 17 18 19 20 21 22 23 24 25
937
FTUS45 KBYZ 231126
TAFBIL
TAF
KBIL 231126Z 2312/2412 01018G28KT 5SM -RA BR BKN025 OVC060
     FM231500 03018G25KT 2SM -RASN BR SCT007 BKN015 OVC030
     FM231900 35018G28KT 6SM -RA BR OVC025
     FM240000 27009KT P6SM VCSH SCT025 BKN040=

USA.gov is the U.S. government's official web portal to all federal, state and local government web resources and services.